Time;durP1;ratioP1;P1;durP2;ratioP2;P2;SDS_P1;SDS_P2;PMS_P1;PMS_P2;Temp;Humidity;BMP_temperature;BMP_pressure;BME280_temperature;BME280_humidity;BME280_pressure;Samples;Min_cycle;Max_cycle;Signal;HPM_P1;HPM_P2
2022/01/19 00:00:48;;;;;;;5.30;3.40;;;10.40;51.00;;;;;;5074077;28;20455;-89
2022/01/19 00:03:16;;;;;;;3.67;2.80;;;10.20;50.90;;;;;;5076020;28;20975;-88
2022/01/19 00:05:44;;;;;;;5.60;2.97;;;10.30;50.90;;;;;;5075256;28;20472;-87
2022/01/19 00:08:16;;;;;;;3.90;3.03;;;10.40;51.00;;;;;;5072765;28;20444;-88
2022/01/19 00:10:45;;;;;;;3.97;3.40;;;10.40;50.60;;;;;;5072020;28;20488;-88
2022/01/19 00:13:12;;;;;;;4.13;3.63;;;10.20;50.60;;;;;;5075228;28;20820;-87
2022/01/19 00:15:40;;;;;;;4.30;3.40;;;10.20;50.50;;;;;;5075905;28;20451;-89
2022/01/19 00:18:07;;;;;;;3.87;3.57;;;10.20;50.90;;;;;;5075301;28;20452;-87
2022/01/19 00:20:35;;;;;;;3.90;3.43;;;10.20;50.70;;;;;;5072846;28;20463;-87
2022/01/19 00:23:05;;;;;;;4.13;2.80;;;10.20;50.60;;;;;;5072033;28;20567;-88
2022/01/19 00:25:34;;;;;;;2.90;2.70;;;10.00;50.70;;;;;;5071809;28;20464;-89
2022/01/19 00:28:03;;;;;;;2.70;2.50;;;9.90;51.50;;;;;;5073710;28;21137;-88
2022/01/19 00:30:31;;;;;;;3.97;2.97;;;9.80;50.90;;;;;;5073865;28;20468;-87
2022/01/19 00:32:59;;;;;;;3.20;2.90;;;9.90;51.00;;;;;;5072742;28;20587;-89
2022/01/19 00:35:26;;;;;;;2.90;2.60;;;9.90;51.00;;;;;;5055485;28;20469;-88
2022/01/19 00:37:53;;;;;;;2.50;2.30;;;10.00;49.80;;;;;;5070952;28;22423;-87
2022/01/19 00:40:20;;;;;;;3.40;2.50;;;9.90;50.70;;;;;;5054202;28;20548;-84
2022/01/19 00:42:49;;;;;;;3.97;2.93;;;9.90;50.80;;;;;;5071688;28;20475;-87
2022/01/19 00:45:17;;;;;;;3.20;2.90;;;9.70;51.10;;;;;;5071472;28;20816;-87
2022/01/19 00:47:45;;;;;;;3.50;2.93;;;9.90;51.70;;;;;;5071643;28;20771;-87
2022/01/19 00:50:15;;;;;;;3.20;2.90;;;10.00;50.20;;;;;;5054362;28;20450;-87
2022/01/19 00:52:42;;;;;;;7.40;3.50;;;9.70;50.40;;;;;;5070719;28;20471;-87
2022/01/19 00:55:11;;;;;;;5.33;3.53;;;9.80;50.90;;;;;;5067725;28;20445;-87
2022/01/19 00:57:38;;;;;;;6.30;3.07;;;9.90;50.90;;;;;;5070277;28;20484;-87
2022/01/19 01:00:08;;;;;;;4.70;3.47;;;10.00;49.90;;;;;;5068209;28;20776;-87
2022/01/19 01:02:36;;;;;;;4.17;3.03;;;10.10;49.70;;;;;;5072599;28;20571;-87
2022/01/19 01:05:03;;;;;;;3.97;3.40;;;10.20;49.70;;;;;;5070116;28;20480;-87
2022/01/19 01:07:33;;;;;;;3.63;3.37;;;10.20;49.90;;;;;;5053332;28;20488;-85
2022/01/19 01:10:00;;;;;;;4.63;3.37;;;10.20;49.90;;;;;;5073052;28;20483;-87
2022/01/19 01:12:41;;;;;;;5.30;3.80;;;10.20;49.20;;;;;;5072503;28;20994;-87
2022/01/19 01:20:41;;;;;;;4.60;4.17;;;10.00;49.80;;;;;;5057324;28;20825;-87
2022/01/19 01:23:10;;;;;;;4.83;4.43;;;10.00;50.50;;;;;;5070722;28;20480;-88
2022/01/19 01:25:38;;;;;;;5.40;4.47;;;10.20;50.40;;;;;;5073469;28;21082;-87
2022/01/19 01:28:06;;;;;;;5.50;4.57;;;10.20;50.00;;;;;;5036602;28;20563;-87
2022/01/19 01:30:34;;;;;;;5.53;4.87;;;10.30;50.00;;;;;;5057805;28;20935;-87
2022/01/19 01:33:02;;;;;;;6.27;4.80;;;10.20;49.80;;;;;;5063012;28;20484;-88
2022/01/19 01:35:30;;;;;;;6.40;4.47;;;10.10;50.10;;;;;;5056730;28;20514;-87
2022/01/19 01:37:57;;;;;;;7.03;5.07;;;10.00;50.40;;;;;;5055863;28;20566;-88
2022/01/19 01:40:26;;;;;;;11.07;6.40;;;10.10;50.70;;;;;;5070754;28;20456;-87
2022/01/19 01:42:54;;;;;;;7.57;5.00;;;10.10;50.30;;;;;;5058322;28;20593;-87
2022/01/19 01:45:26;;;;;;;6.57;4.90;;;10.20;50.30;;;;;;5069224;28;20883;-87
2022/01/19 01:48:02;;;;;;;7.43;5.67;;;10.20;50.60;;;;;;5071992;28;20528;-88
2022/01/19 01:53:29;;;;;;;4.87;4.47;;;10.30;50.90;;;;;;5063724;28;20501;-87
2022/01/19 01:56:00;;;;;;;7.27;4.83;;;10.10;49.90;;;;;;5057896;28;20724;-87
2022/01/19 01:58:29;;;;;;;9.63;5.57;;;9.30;51.80;;;;;;5053500;28;20455;-87
2022/01/19 02:01:19;;;;;;;7.03;5.53;;;9.40;52.60;;;;;;5050447;28;20484;-87
2022/01/19 02:03:47;;;;;;;6.50;5.77;;;9.40;52.90;;;;;;5046009;28;20839;-88
2022/01/19 02:09:18;;;;;;;6.63;5.30;;;9.70;52.70;;;;;;5054086;28;20539;-87
2022/01/19 02:23:10;;;;;;;8.07;6.20;;;10.00;50.30;;;;;;5070813;28;20498;-87
2022/01/19 02:25:41;;;;;;;10.70;7.00;;;10.20;50.90;;;;;;5072394;28;20479;-87
2022/01/19 02:41:57;;;;;;;14.70;7.97;;;9.60;52.50;;;;;;5074749;28;20468;-88
2022/01/19 02:44:39;;;;;;;8.33;6.87;;;9.70;52.50;;;;;;5060521;28;20836;-87
2022/01/19 02:49:53;;;;;;;10.93;7.17;;;9.80;51.80;;;;;;5076361;28;20443;-87
2022/01/19 02:52:25;;;;;;;9.50;7.00;;;9.90;51.50;;;;;;5072779;28;20464;-86
2022/01/19 02:54:53;;;;;;;21.47;7.10;;;10.10;50.70;;;;;;5077974;28;20488;-87
2022/01/19 02:57:25;;;;;;;7.53;5.90;;;10.10;50.20;;;;;;5048316;28;20918;-85
2022/01/19 03:06:26;;;;;;;9.83;6.63;;;10.20;50.10;;;;;;5062936;28;20467;-88
2022/01/19 03:11:02;;;;;;;10.73;6.67;;;10.30;50.70;;;;;;5066481;28;20452;-87
2022/01/19 03:13:29;;;;;;;7.63;5.90;;;10.30;50.40;;;;;;5073090;28;20543;-88
2022/01/19 03:15:56;;;;;;;10.40;6.30;;;10.20;49.70;;;;;;5044993;28;20980;-87
2022/01/19 03:18:23;;;;;;;11.10;6.93;;;9.90;50.80;;;;;;5074713;28;20998;-87
2022/01/19 03:20:51;;;;;;;10.63;6.40;;;9.70;50.90;;;;;;5058500;28;20465;-86
2022/01/19 03:23:20;;;;;;;11.83;6.80;;;9.40;51.00;;;;;;5057168;28;20472;-87
2022/01/19 03:25:48;;;;;;;9.03;6.60;;;9.30;51.20;;;;;;5057924;28;20468;-87
2022/01/19 03:28:16;;;;;;;7.80;6.17;;;9.20;51.40;;;;;;5056865;28;20462;-87
2022/01/19 03:30:43;;;;;;;22.80;13.07;;;9.40;51.50;;;;;;5061678;28;20790;-87
2022/01/19 03:33:10;;;;;;;27.63;14.90;;;9.40;50.60;;;;;;5055592;28;20479;-87
2022/01/19 03:35:39;;;;;;;21.00;10.70;;;9.60;50.70;;;;;;5059541;28;20880;-87
2022/01/19 03:38:06;;;;;;;13.33;7.80;;;9.70;51.20;;;;;;5040476;28;20553;-87
2022/01/19 03:40:36;;;;;;;10.40;6.20;;;9.80;50.90;;;;;;5058703;28;20461;-86
2022/01/19 03:43:05;;;;;;;7.17;6.03;;;9.80;50.40;;;;;;5067756;28;20577;-88
2022/01/19 03:45:58;;;;;;;11.30;6.03;;;9.90;50.30;;;;;;5063548;28;20512;-86
2022/01/19 03:48:42;;;;;;;11.60;6.87;;;10.00;49.20;;;;;;5074751;28;20490;-87
2022/01/19 03:51:09;;;;;;;14.87;8.80;;;9.90;49.60;;;;;;5071616;28;20456;-87
2022/01/19 03:53:36;;;;;;;17.27;10.67;;;9.80;49.70;;;;;;5058915;28;20468;-87
2022/01/19 03:56:05;;;;;;;15.70;8.83;;;9.80;49.60;;;;;;5073234;28;20452;-87
2022/01/19 03:58:32;;;;;;;9.07;6.40;;;9.70;49.70;;;;;;5043935;28;20491;-87
2022/01/19 04:00:59;;;;;;;7.57;5.80;;;9.40;49.50;;;;;;5063596;28;20467;-87
2022/01/19 04:03:39;;;;;;;7.23;6.07;;;9.30;49.90;;;;;;5074055;28;20499;-87
2022/01/19 04:06:16;;;;;;;8.20;6.57;;;9.20;50.10;;;;;;5054229;28;20579;-88
2022/01/19 04:08:43;;;;;;;8.07;6.10;;;9.10;50.00;;;;;;5074830;28;20451;-88
2022/01/19 04:11:13;;;;;;;7.70;6.67;;;8.90;50.00;;;;;;5064420;28;20559;-88
2022/01/19 04:13:59;;;;;;;10.40;8.07;;;8.60;50.70;;;;;;5067590;28;20767;-87
2022/01/19 04:16:26;;;;;;;13.70;8.77;;;8.50;51.10;;;;;;5064028;28;20459;-88
2022/01/19 04:19:02;;;;;;;14.67;9.17;;;8.40;51.20;;;;;;5060297;28;20804;-87
2022/01/19 04:21:29;;;;;;;8.77;6.50;;;8.40;51.40;;;;;;5059787;28;21047;-87
2022/01/19 04:23:56;;;;;;;11.77;6.67;;;8.30;51.40;;;;;;5075638;28;20813;-87
2022/01/19 04:26:25;;;;;;;15.90;10.50;;;8.30;51.40;;;;;;5056068;28;20570;-88
2022/01/19 04:28:53;;;;;;;13.00;9.20;;;8.20;51.20;;;;;;5040683;28;20821;-87
2022/01/19 04:31:20;;;;;;;17.60;11.60;;;8.10;51.40;;;;;;5061426;28;20502;-87
2022/01/19 04:33:47;;;;;;;22.63;14.80;;;8.10;52.10;;;;;;5053616;28;20523;-88
2022/01/19 04:36:28;;;;;;;19.13;10.10;;;8.00;51.50;;;;;;5063882;28;20533;-87
2022/01/19 04:39:21;;;;;;;20.50;9.40;;;8.00;52.00;;;;;;5059602;28;20456;-85
2022/01/19 04:44:52;;;;;;;24.73;12.27;;;7.80;51.50;;;;;;5073932;28;20851;-87
2022/01/19 04:47:59;;;;;;;18.23;12.70;;;7.50;51.90;;;;;;5046903;28;20944;-86
2022/01/19 05:01:44;;;;;;;18.97;9.73;;;7.10;53.20;;;;;;5018184;28;20474;-88
2022/01/19 05:04:31;;;;;;;10.60;6.80;;;7.10;53.20;;;;;;5025714;28;20992;-87
2022/01/19 05:07:16;;;;;;;8.67;5.93;;;7.20;52.90;;;;;;5054205;28;21018;-87
2022/01/19 05:10:01;;;;;;;16.60;7.93;;;7.20;52.90;;;;;;5062983;28;20458;-87
2022/01/19 05:15:26;;;;;;;8.40;5.90;;;7.20;52.90;;;;;;4988688;28;20447;-87
2022/01/19 05:17:53;;;;;;;8.87;5.70;;;7.20;52.90;;;;;;5043800;28;20540;-87
2022/01/19 05:20:21;;;;;;;7.93;6.10;;;6.80;52.90;;;;;;5053510;28;21078;-84
2022/01/19 05:22:48;;;;;;;11.10;6.30;;;6.50;53.80;;;;;;5072226;28;20499;-87
2022/01/19 05:25:18;;;;;;;13.50;6.47;;;6.30;54.50;;;;;;5053996;28;20461;-87
2022/01/19 05:27:53;;;;;;;8.60;5.47;;;6.20;55.10;;;;;;5076210;28;20538;-88
2022/01/19 05:30:21;;;;;;;11.03;5.67;;;6.30;55.00;;;;;;5041551;28;20865;-86
2022/01/19 05:32:50;;;;;;;8.50;5.43;;;6.50;54.70;;;;;;5065373;28;20483;-87
2022/01/19 05:35:17;;;;;;;10.13;6.10;;;6.50;54.30;;;;;;5061067;28;20882;-87
2022/01/19 05:37:53;;;;;;;14.13;6.03;;;6.50;54.40;;;;;;5055494;28;20455;-87
2022/01/19 05:40:43;;;;;;;12.83;7.13;;;6.60;54.20;;;;;;5070474;28;20459;-87
2022/01/19 05:43:11;;;;;;;14.03;6.70;;;6.60;54.40;;;;;;5063226;28;20784;-89
2022/01/19 05:45:38;;;;;;;9.03;5.53;;;6.40;54.30;;;;;;5058418;28;20472;-88
2022/01/19 05:48:18;;;;;;;9.50;6.40;;;6.50;54.70;;;;;;5044971;28;20458;-87
2022/01/19 05:50:51;;;;;;;10.90;6.80;;;6.70;54.20;;;;;;5056449;28;20462;-88
2022/01/19 05:53:22;;;;;;;13.50;6.90;;;6.90;53.90;;;;;;5058749;28;20567;-88
2022/01/19 05:55:49;;;;;;;11.80;6.13;;;6.90;53.70;;;;;;5062583;28;20448;-87
2022/01/19 05:58:16;;;;;;;11.37;6.13;;;7.10;53.50;;;;;;5040306;28;20482;-89
2022/01/19 06:00:44;;;;;;;10.80;6.50;;;7.20;53.10;;;;;;5059070;28;20547;-88
2022/01/19 06:03:12;;;;;;;10.00;6.90;;;7.30;53.00;;;;;;5055595;28;21002;-87
2022/01/19 06:05:59;;;;;;;23.83;11.40;;;7.40;53.00;;;;;;5074682;28;20479;-88
2022/01/19 06:08:42;;;;;;;11.83;6.00;;;7.50;52.80;;;;;;5039909;28;20464;-85
2022/01/19 06:11:10;;;;;;;17.53;8.60;;;7.20;52.20;;;;;;5043430;28;20455;-88
2022/01/19 06:13:39;;;;;;;16.73;8.37;;;7.10;53.20;;;;;;5061144;28;20457;-88
2022/01/19 06:16:07;;;;;;;11.60;7.67;;;7.20;53.40;;;;;;5066973;28;20466;-88
2022/01/19 06:18:35;;;;;;;20.37;9.30;;;7.30;53.10;;;;;;5052304;28;20469;-88
2022/01/19 06:21:04;;;;;;;15.57;6.97;;;7.40;52.80;;;;;;5070139;28;20566;-87
2022/01/19 06:23:37;;;;;;;18.30;10.10;;;7.30;52.20;;;;;;5062331;28;20494;-88
2022/01/19 06:26:07;;;;;;;32.77;14.70;;;7.30;52.40;;;;;;5037438;28;20460;-88
2022/01/19 06:28:36;;;;;;;39.73;18.63;;;7.20;52.00;;;;;;5068206;28;20490;-85
2022/01/19 06:31:06;;;;;;;37.30;19.27;;;7.00;52.30;;;;;;5064707;28;20468;-84
2022/01/19 06:33:33;;;;;;;53.17;25.50;;;7.00;52.40;;;;;;5063558;28;20455;-90
2022/01/19 06:36:01;;;;;;;46.50;21.93;;;7.00;52.50;;;;;;5044557;28;20441;-87
2022/01/19 06:38:53;;;;;;;102.50;37.10;;;7.10;52.50;;;;;;5042872;28;20476;-89
2022/01/19 06:41:27;;;;;;;83.93;33.47;;;7.00;52.30;;;;;;5062105;28;20501;-89
2022/01/19 06:43:55;;;;;;;48.20;20.80;;;7.10;52.20;;;;;;5058153;28;20460;-88
2022/01/19 06:46:22;;;;;;;73.97;29.43;;;7.10;52.00;;;;;;5063089;28;20525;-88
2022/01/19 06:48:49;;;;;;;15.87;8.90;;;7.00;52.10;;;;;;5060254;28;20455;-88
2022/01/19 06:51:17;;;;;;;14.13;9.20;;;7.00;52.40;;;;;;5063460;28;20491;-88
2022/01/19 06:53:49;;;;;;;26.50;12.97;;;6.90;52.40;;;;;;5058359;28;20958;-88
2022/01/19 06:56:23;;;;;;;42.10;18.43;;;7.00;52.70;;;;;;5054205;28;20790;-88
2022/01/19 06:58:57;;;;;;;23.20;10.93;;;7.00;52.20;;;;;;5056944;28;20464;-88
2022/01/19 07:01:34;;;;;;;48.70;15.87;;;7.00;52.00;;;;;;5060763;28;20486;-88
2022/01/19 07:04:10;;;;;;;39.87;15.13;;;7.00;52.10;;;;;;5062108;28;20459;-88
2022/01/19 07:06:38;;;;;;;12.83;8.20;;;7.00;51.90;;;;;;5058215;28;20903;-86
2022/01/19 07:09:17;;;;;;;36.00;13.40;;;7.10;51.80;;;;;;5067957;28;20460;-88
2022/01/19 07:11:51;;;;;;;66.40;20.87;;;7.10;51.60;;;;;;5050141;28;20496;-89
2022/01/19 07:14:18;;;;;;;60.43;22.00;;;7.10;51.40;;;;;;5076732;28;21021;-88
2022/01/19 07:16:47;;;;;;;29.17;11.27;;;7.20;51.20;;;;;;5058335;28;20461;-89
2022/01/19 07:19:15;;;;;;;51.50;12.90;;;7.20;51.20;;;;;;5059194;28;20502;-88
2022/01/19 07:21:44;;;;;;;37.40;12.57;;;7.20;51.40;;;;;;5061175;28;20533;-88
2022/01/19 07:24:12;;;;;;;134.40;34.50;;;7.10;51.30;;;;;;5057623;28;20474;-89
2022/01/19 07:26:39;;;;;;;156.33;41.20;;;7.10;51.40;;;;;;5059402;28;20693;-90
2022/01/19 07:29:10;;;;;;;83.03;24.40;;;7.00;51.60;;;;;;5059644;28;20950;-90
2022/01/19 07:31:38;;;;;;;94.50;25.87;;;7.10;51.50;;;;;;5059306;28;20919;-87
2022/01/19 07:34:09;;;;;;;67.90;20.03;;;7.10;51.50;;;;;;5058514;28;20854;-88
2022/01/19 07:36:38;;;;;;;33.77;12.67;;;7.10;51.30;;;;;;5074557;28;20488;-87
2022/01/19 07:39:07;;;;;;;23.17;10.97;;;7.10;51.00;;;;;;5063916;28;20487;-88
2022/01/19 07:41:35;;;;;;;22.30;9.20;;;7.10;50.90;;;;;;5061436;28;20918;-88
2022/01/19 07:44:23;;;;;;;16.07;8.57;;;7.10;51.00;;;;;;5075344;28;20449;-88
2022/01/19 07:47:10;;;;;;;13.30;7.47;;;7.00;51.00;;;;;;5072497;28;20480;-88
2022/01/19 07:49:57;;;;;;;10.97;6.23;;;7.00;51.20;;;;;;5060421;28;20935;-88
2022/01/19 07:52:47;;;;;;;9.13;6.07;;;6.90;51.20;;;;;;5035276;28;20476;-88
2022/01/19 07:55:20;;;;;;;8.23;4.97;;;6.90;51.30;;;;;;5058883;28;20460;-86
2022/01/19 07:58:04;;;;;;;17.60;6.53;;;6.80;51.50;;;;;;5076926;28;20452;-88
2022/01/19 08:00:53;;;;;;;121.07;39.57;;;6.80;51.80;;;;;;5073377;28;20448;-88
2022/01/19 08:03:37;;;;;;;81.80;38.00;;;6.70;52.50;;;;;;5056908;28;20453;-87
2022/01/19 08:06:11;;;;;;;43.77;22.90;;;6.20;53.70;;;;;;5047755;28;20484;-88
2022/01/19 08:08:39;;;;;;;48.13;27.00;;;5.60;55.40;;;;;;5061176;28;20465;-85
2022/01/19 08:11:06;;;;;;;42.73;20.30;;;5.50;56.10;;;;;;5076890;28;20549;-88
2022/01/19 08:13:38;;;;;;;48.70;22.50;;;5.60;55.80;;;;;;5058937;28;20460;-87
2022/01/19 08:16:08;;;;;;;56.87;25.77;;;5.80;55.30;;;;;;5057461;28;20856;-89
2022/01/19 08:18:35;;;;;;;52.90;24.07;;;6.00;54.90;;;;;;5037929;28;20457;-88
2022/01/19 08:21:02;;;;;;;60.10;26.03;;;6.00;54.90;;;;;;5058442;28;20462;-86
2022/01/19 08:23:37;;;;;;;65.33;27.10;;;6.10;54.80;;;;;;5064471;28;21169;-87
2022/01/19 08:26:04;;;;;;;52.10;24.87;;;6.20;54.50;;;;;;5061039;28;20500;-88
2022/01/19 08:28:32;;;;;;;69.53;31.60;;;6.10;54.80;;;;;;5062099;28;20559;-87
2022/01/19 08:30:59;;;;;;;55.10;25.37;;;6.10;54.50;;;;;;5059511;28;20451;-88
2022/01/19 08:33:48;;;;;;;68.47;27.70;;;6.20;54.70;;;;;;5077537;28;20464;-88
2022/01/19 08:36:21;;;;;;;68.00;27.47;;;6.30;54.40;;;;;;5054378;28;21118;-86
2022/01/19 08:39:07;;;;;;;29.53;14.40;;;6.40;54.30;;;;;;5043487;28;20935;-88
2022/01/19 08:41:34;;;;;;;59.40;25.10;;;6.40;54.10;;;;;;5064598;28;20479;-88
2022/01/19 08:44:01;;;;;;;68.33;27.50;;;6.50;53.70;;;;;;5043381;28;20452;-87
2022/01/19 08:46:28;;;;;;;32.30;16.60;;;6.60;53.80;;;;;;5057385;28;20550;-87
2022/01/19 08:49:16;;;;;;;22.83;12.47;;;6.60;53.80;;;;;;5059963;28;20486;-87
2022/01/19 08:51:50;;;;;;;22.90;9.40;;;6.70;53.90;;;;;;5075247;28;20555;-87
2022/01/19 08:54:20;;;;;;;18.50;10.00;;;6.80;53.80;;;;;;5058742;28;20556;-86
2022/01/19 08:57:00;;;;;;;12.13;7.60;;;6.90;53.60;;;;;;5064169;28;20462;-87
2022/01/19 08:59:27;;;;;;;11.13;6.87;;;6.80;53.50;;;;;;5074844;28;20464;-88
2022/01/19 09:01:54;;;;;;;11.50;7.10;;;6.80;53.60;;;;;;5074521;28;20475;-88
2022/01/19 09:04:22;;;;;;;15.83;6.77;;;6.70;53.50;;;;;;5077446;28;20544;-87
2022/01/19 09:06:49;;;;;;;8.07;5.60;;;6.80;53.50;;;;;;5076024;28;20463;-87
2022/01/19 09:09:16;;;;;;;12.63;6.87;;;6.90;53.50;;;;;;5077776;28;20470;-87
2022/01/19 09:11:44;;;;;;;11.03;5.93;;;6.90;53.40;;;;;;5060260;28;21024;-88
2022/01/19 09:14:11;;;;;;;9.60;7.73;;;6.90;53.40;;;;;;5075704;28;20561;-88
2022/01/19 09:16:38;;;;;;;12.40;7.20;;;6.90;53.50;;;;;;5074837;28;20475;-86
2022/01/19 09:19:07;;;;;;;10.30;6.13;;;7.00;53.50;;;;;;5071866;28;20467;-89
2022/01/19 09:21:36;;;;;;;56.77;20.90;;;7.00;53.30;;;;;;5072584;28;20481;-88
2022/01/19 09:24:03;;;;;;;17.07;9.13;;;6.80;53.20;;;;;;5055078;28;20479;-87
2022/01/19 09:26:31;;;;;;;19.83;11.50;;;6.60;54.60;;;;;;5079897;28;20563;-87
2022/01/19 09:28:58;;;;;;;28.30;14.30;;;6.70;54.70;;;;;;5073744;28;20972;-88
2022/01/19 09:31:25;;;;;;;28.63;13.60;;;6.80;54.40;;;;;;5070573;28;20459;-87
2022/01/19 09:33:57;;;;;;;33.40;17.50;;;6.90;54.10;;;;;;5072641;28;20456;-87
2022/01/19 09:36:32;;;;;;;32.50;17.87;;;7.00;53.80;;;;;;5072778;28;20555;-87
2022/01/19 09:39:01;;;;;;;24.07;15.67;;;7.00;53.90;;;;;;5073780;28;20462;-86
2022/01/19 09:41:29;;;;;;;23.93;12.53;;;7.10;53.80;;;;;;5072691;28;20554;-87
2022/01/19 09:43:57;;;;;;;26.83;16.23;;;7.10;53.80;;;;;;5057921;28;20548;-88
2022/01/19 09:46:26;;;;;;;31.17;16.13;;;7.10;53.80;;;;;;5078004;28;20472;-88
2022/01/19 09:48:54;;;;;;;29.87;14.40;;;7.10;53.80;;;;;;5060551;28;20510;-88
2022/01/19 09:51:21;;;;;;;22.30;11.97;;;7.10;53.80;;;;;;5074838;28;20469;-86
2022/01/19 09:53:48;;;;;;;18.40;11.63;;;7.10;53.70;;;;;;5078843;28;21034;-88
2022/01/19 09:56:19;;;;;;;20.30;10.37;;;7.20;53.60;;;;;;5076239;28;20452;-87
2022/01/19 09:58:46;;;;;;;16.47;10.47;;;7.20;53.60;;;;;;5073712;28;20444;-88
2022/01/19 10:01:18;;;;;;;17.40;9.97;;;7.20;53.60;;;;;;5082424;28;20460;-88
2022/01/19 10:03:45;;;;;;;11.93;8.20;;;7.20;53.30;;;;;;5074550;28;20944;-88
2022/01/19 10:06:15;;;;;;;15.93;8.10;;;7.00;53.60;;;;;;5076117;28;20463;-88
2022/01/19 10:08:44;;;;;;;23.20;11.60;;;7.10;53.80;;;;;;5078011;28;20451;-88
2022/01/19 10:11:20;;;;;;;34.90;12.40;;;7.20;53.60;;;;;;5076001;28;20456;-88
2022/01/19 10:17:00;;;;;;;18.13;11.13;;;7.30;53.60;;;;;;5068102;28;20433;-88
2022/01/19 10:19:29;;;;;;;13.20;8.97;;;7.40;53.40;;;;;;5059105;28;20463;-88
2022/01/19 10:22:09;;;;;;;16.53;9.93;;;7.50;53.30;;;;;;5068514;28;20480;-88
2022/01/19 10:24:40;;;;;;;13.70;7.73;;;7.50;53.20;;;;;;5073059;28;21051;-88
2022/01/19 10:27:29;;;;;;;14.43;8.17;;;7.60;53.10;;;;;;5073971;28;21067;-88
2022/01/19 10:30:11;;;;;;;18.37;7.30;;;7.60;52.70;;;;;;5074950;28;20564;-87
2022/01/19 10:32:41;;;;;;;13.07;6.97;;;7.70;52.80;;;;;;5077386;28;20555;-88
2022/01/19 10:35:18;;;;;;;11.97;6.57;;;7.70;53.20;;;;;;5075847;28;20452;-88
2022/01/19 10:37:46;;;;;;;19.83;7.97;;;7.80;52.60;;;;;;5075200;28;20551;-88
2022/01/19 10:40:18;;;;;;;19.13;8.07;;;7.90;52.40;;;;;;5078254;28;20456;-89
2022/01/19 10:42:48;;;;;;;13.43;7.77;;;7.90;52.30;;;;;;5079683;28;20487;-88
2022/01/19 10:45:16;;;;;;;13.33;8.03;;;7.50;52.30;;;;;;5076058;28;20538;-88
2022/01/19 10:47:50;;;;;;;17.30;6.70;;;7.30;53.40;;;;;;5078935;28;20821;-88
2022/01/19 10:50:22;;;;;;;14.83;7.03;;;7.30;53.40;;;;;;5076047;28;20481;-88
2022/01/19 10:52:50;;;;;;;17.00;7.37;;;7.30;53.80;;;;;;5076999;28;20468;-88
2022/01/19 10:55:27;;;;;;;12.80;7.53;;;7.50;53.70;;;;;;5074997;28;20449;-87
2022/01/19 10:57:57;;;;;;;15.47;8.13;;;7.70;53.50;;;;;;5078076;28;20452;-88
2022/01/19 11:00:28;;;;;;;11.50;7.60;;;7.80;53.00;;;;;;5074682;28;20452;-88
2022/01/19 11:03:13;;;;;;;13.40;6.47;;;7.80;52.80;;;;;;5079994;28;20525;-88
2022/01/19 11:05:43;;;;;;;13.93;7.10;;;7.80;53.30;;;;;;5075437;28;20892;-87
2022/01/19 11:08:11;;;;;;;9.70;6.67;;;7.90;52.90;;;;;;5059388;28;20464;-88
2022/01/19 11:10:38;;;;;;;12.13;6.10;;;8.10;52.80;;;;;;5077608;28;21027;-88
2022/01/19 11:13:13;;;;;;;13.90;7.07;;;8.20;52.50;;;;;;5077072;28;20615;-89
2022/01/19 11:15:40;;;;;;;16.03;6.70;;;8.20;52.30;;;;;;5077809;28;20969;-88
2022/01/19 11:18:07;;;;;;;13.20;6.43;;;8.30;52.20;;;;;;5076916;28;20475;-88
2022/01/19 11:20:43;;;;;;;13.33;8.20;;;8.30;52.20;;;;;;5075897;28;20466;-88
2022/01/19 11:23:19;;;;;;;11.00;7.20;;;8.30;52.00;;;;;;5074731;28;20480;-88
2022/01/19 11:26:01;;;;;;;11.73;7.83;;;8.40;52.60;;;;;;5057432;28;20448;-89
2022/01/19 11:28:35;;;;;;;12.50;7.27;;;8.60;51.80;;;;;;5077209;28;20479;-87
2022/01/19 11:31:09;;;;;;;12.30;7.10;;;8.50;51.90;;;;;;5079753;28;20452;-89
2022/01/19 11:33:43;;;;;;;9.90;6.50;;;8.70;51.80;;;;;;5075539;28;21139;-90
2022/01/19 11:36:22;;;;;;;15.23;10.80;;;8.90;51.70;;;;;;5077331;28;20448;-88
2022/01/19 11:38:50;;;;;;;11.53;6.33;;;8.90;51.50;;;;;;5074811;28;20457;-89
2022/01/19 11:41:46;;;;;;;10.33;6.57;;;9.00;51.60;;;;;;5077480;28;20451;-88
2022/01/19 11:44:18;;;;;;;12.13;6.13;;;9.10;51.10;;;;;;5075197;28;20480;-87
2022/01/19 11:46:48;;;;;;;10.87;6.80;;;9.20;51.30;;;;;;5072620;28;20577;-88
2022/01/19 11:49:17;;;;;;;11.13;6.40;;;9.20;51.20;;;;;;5074165;28;20456;-87
2022/01/19 11:51:46;;;;;;;13.47;6.90;;;9.30;51.70;;;;;;5077741;28;20479;-88
2022/01/19 11:54:17;;;;;;;13.03;7.40;;;9.40;51.10;;;;;;5078002;28;20861;-88
2022/01/19 11:57:07;;;;;;;9.00;5.93;;;9.50;51.10;;;;;;5072503;28;20533;-86
2022/01/19 12:00:19;;;;;;;12.27;7.03;;;9.40;51.20;;;;;;5074397;28;20456;-88
2022/01/19 12:02:53;;;;;;;10.83;5.67;;;9.40;51.10;;;;;;5074870;28;20502;-89
2022/01/19 12:05:27;;;;;;;8.40;5.03;;;9.30;51.20;;;;;;5074301;28;20970;-86
2022/01/19 12:07:57;;;;;;;8.50;6.80;;;9.20;51.10;;;;;;5055268;28;20968;-88
2022/01/19 12:10:43;;;;;;;10.07;5.87;;;9.20;51.50;;;;;;5080291;28;20454;-90
2022/01/19 12:13:37;;;;;;;11.43;6.53;;;9.20;51.60;;;;;;5074578;28;20475;-89
2022/01/19 12:16:12;;;;;;;9.63;5.90;;;9.20;51.50;;;;;;5059078;28;20554;-87
2022/01/19 12:18:50;;;;;;;11.23;6.17;;;9.20;51.50;;;;;;5074625;28;20957;-89
2022/01/19 12:21:38;;;;;;;11.83;6.20;;;9.10;51.40;;;;;;5055948;28;20484;-89
2022/01/19 12:24:19;;;;;;;9.90;6.57;;;8.90;51.30;;;;;;5061390;28;20938;-88
2022/01/19 12:27:00;;;;;;;10.43;6.47;;;8.90;51.70;;;;;;5073206;28;20457;-88
2022/01/19 12:29:45;;;;;;;9.50;6.87;;;8.90;51.50;;;;;;5066860;28;20566;-88
2022/01/19 12:32:38;;;;;;;11.87;6.80;;;8.90;51.50;;;;;;5072694;28;20477;-89
2022/01/19 12:35:35;;;;;;;13.60;6.70;;;8.70;51.40;;;;;;5072498;28;20451;-89
2022/01/19 12:38:06;;;;;;;16.83;9.57;;;8.80;52.00;;;;;;5072220;28;20498;-88
2022/01/19 12:40:45;;;;;;;14.70;9.00;;;9.00;51.90;;;;;;5075816;28;20545;-87
2022/01/19 12:43:34;;;;;;;12.10;6.10;;;9.20;53.20;;;;;;5057180;28;20574;-89
2022/01/19 12:46:02;;;;;;;13.10;6.30;;;9.60;55.80;;;;;;5074636;28;20461;-88
2022/01/19 12:48:36;;;;;;;9.47;6.30;;;9.60;51.90;;;;;;5061540;28;20533;-88
2022/01/19 12:51:05;;;;;;;9.13;6.23;;;9.50;50.30;;;;;;5052046;28;20549;-88
2022/01/19 12:53:32;;;;;;;12.13;5.90;;;9.50;51.20;;;;;;5058314;28;20968;-89
2022/01/19 12:56:01;;;;;;;17.90;15.43;;;9.60;51.00;;;;;;5074544;28;20456;-88
2022/01/19 12:58:32;;;;;;;13.07;7.03;;;9.50;49.80;;;;;;5055669;28;20449;-89
2022/01/19 13:01:02;;;;;;;14.17;8.30;;;9.40;49.50;;;;;;5075265;28;20455;-89
2022/01/19 13:03:32;;;;;;;7.47;5.17;;;9.40;49.80;;;;;;5072087;28;20535;-88
2022/01/19 13:06:02;;;;;;;11.30;6.83;;;9.30;50.50;;;;;;5078098;28;20530;-88
2022/01/19 13:08:37;;;;;;;12.80;7.43;;;9.30;50.10;;;;;;5077602;28;20494;-89
2022/01/19 13:11:24;;;;;;;12.23;6.90;;;9.40;50.20;;;;;;5063795;28;20490;-88
2022/01/19 13:13:57;;;;;;;9.80;6.17;;;9.40;49.90;;;;;;5076926;28;20466;-87
2022/01/19 13:16:44;;;;;;;9.20;6.30;;;9.10;50.10;;;;;;5071951;28;20506;-88
2022/01/19 13:19:15;;;;;;;9.13;5.90;;;9.00;50.50;;;;;;5075251;28;20447;-88
2022/01/19 13:21:44;;;;;;;10.30;6.53;;;8.90;50.60;;;;;;5069954;28;20519;-89
2022/01/19 13:24:16;;;;;;;13.43;5.53;;;9.10;50.80;;;;;;5056749;28;20555;-88
2022/01/19 13:26:47;;;;;;;10.23;5.97;;;9.00;51.00;;;;;;5074314;28;20744;-88
2022/01/19 13:29:17;;;;;;;8.10;5.90;;;8.70;51.20;;;;;;5073338;28;20951;-89
2022/01/19 13:31:58;;;;;;;9.90;6.10;;;8.80;51.50;;;;;;5072431;28;20578;-87
2022/01/19 13:34:25;;;;;;;10.30;5.60;;;8.70;51.50;;;;;;5074923;28;20457;-89
2022/01/19 13:36:59;;;;;;;11.07;6.23;;;8.70;51.40;;;;;;5074834;28;20455;-89
2022/01/19 13:39:30;;;;;;;15.47;5.97;;;8.50;51.90;;;;;;5040709;28;20469;-88
2022/01/19 13:41:59;;;;;;;8.33;5.60;;;8.40;52.30;;;;;;5074017;28;20500;-91
2022/01/19 13:44:33;;;;;;;10.43;6.10;;;8.60;52.10;;;;;;5077362;28;20521;-89
2022/01/19 13:47:11;;;;;;;7.30;5.47;;;8.70;51.90;;;;;;5074574;28;20966;-87
2022/01/19 13:49:40;;;;;;;9.93;6.07;;;8.90;51.80;;;;;;5051926;28;20444;-87
2022/01/19 13:52:09;;;;;;;17.70;5.73;;;8.80;51.80;;;;;;5075364;28;20487;-89
2022/01/19 13:54:40;;;;;;;9.83;5.73;;;8.50;52.30;;;;;;5072812;28;20449;-89
2022/01/19 13:57:07;;;;;;;11.30;4.47;;;8.60;52.50;;;;;;5069715;28;21022;-88
2022/01/19 13:59:34;;;;;;;8.70;5.50;;;8.30;52.40;;;;;;5073953;28;20456;-89
2022/01/19 14:02:13;;;;;;;13.20;6.70;;;8.50;52.90;;;;;;5071914;28;21025;-89
2022/01/19 14:04:52;;;;;;;9.77;5.97;;;8.50;52.70;;;;;;5073715;28;20513;-89
2022/01/19 14:07:19;;;;;;;9.50;7.20;;;8.50;52.50;;;;;;5075280;28;20451;-89
2022/01/19 14:09:48;;;;;;;9.77;6.07;;;8.40;52.70;;;;;;5057706;28;20475;-88
2022/01/19 14:12:19;;;;;;;10.10;5.87;;;8.20;53.20;;;;;;5054389;28;20484;-89
2022/01/19 14:14:55;;;;;;;12.90;7.00;;;8.20;53.20;;;;;;5075187;28;20453;-88
2022/01/19 14:17:28;;;;;;;9.87;6.57;;;8.20;53.40;;;;;;5075590;28;20505;-89
2022/01/19 14:19:56;;;;;;;8.10;5.87;;;8.30;53.40;;;;;;5075937;28;20509;-87